Time;durP1;ratioP1;P1;durP2;ratioP2;P2;SDS_P1;SDS_P2;PMS_P1;PMS_P2;Temp;Humidity;BMP_temperature;BMP_pressure;BME280_temperature;BME280_humidity;BME280_pressure;Samples;Min_cycle;Max_cycle;Signal;HPM_P1;HPM_P2
2021/04/14 00:02:08;;;;;;;;;;;;;;;9.57;41.46;102398.72;4998585;28;98919;-80
2021/04/14 00:04:34;;;;;;;;;;;;;;;9.70;41.04;102397.78;4995262;28;98488;-79
2021/04/14 00:07:00;;;;;;;;;;;;;;;9.70;40.83;102395.13;4992946;28;97595;-80
2021/04/14 00:09:26;;;;;;;;;;;;;;;9.71;40.88;102396.91;4992009;28;96912;-78
2021/04/14 00:11:52;;;;;;;;;;;;;;;9.53;41.12;102396.97;4991162;28;99089;-78
2021/04/14 00:14:18;;;;;;;;;;;;;;;9.48;41.32;102396.13;4989917;28;98720;-78
2021/04/14 00:16:44;;;;;;;;;;;;;;;9.47;41.33;102397.00;4989188;28;98283;-78
2021/04/14 00:19:10;;;;;;;;;;;;;;;9.51;41.45;102393.50;4988207;28;97322;-78
2021/04/14 00:21:36;;;;;;;;;;;;;;;8.97;42.38;102389.28;4986049;28;98827;-79
2021/04/14 00:24:02;;;;;;;;;;;;;;;9.13;42.29;102394.50;4988053;28;98984;-79
2021/04/14 00:26:28;;;;;;;;;;;;;;;8.86;42.51;102397.22;4984867;28;97224;-79
2021/04/14 00:28:54;;;;;;;;;;;;;;;8.65;42.94;102402.53;4988570;28;96923;-79
2021/04/14 00:31:34;;;;;;;;;;;;;;;9.04;42.37;102393.69;4987900;28;99353;-78
2021/04/14 00:34:00;;;;;;;;;;;;;;;9.34;41.82;102395.31;4989017;28;98118;-79
2021/04/14 00:36:26;;;;;;;;;;;;;;;9.09;41.98;102384.88;4987815;28;98242;-79
2021/04/14 00:38:52;;;;;;;;;;;;;;;9.39;41.48;102382.97;4991844;28;96845;-79
2021/04/14 00:41:18;;;;;;;;;;;;;;;8.88;42.69;102397.22;4988983;28;98882;-78
2021/04/14 00:43:43;;;;;;;;;;;;;;;8.78;42.97;102388.47;4986242;28;101608;-79
2021/04/14 00:46:09;;;;;;;;;;;;;;;8.85;43.14;102387.56;4989617;28;97143;-79
2021/04/14 00:48:36;;;;;;;;;;;;;;;8.67;43.37;102398.13;4989123;28;98455;-79
2021/04/14 00:51:04;;;;;;;;;;;;;;;8.71;43.16;102386.72;4990290;28;99481;-79
2021/04/14 00:53:30;;;;;;;;;;;;;;;9.07;42.40;102391.00;5000639;28;100608;-78
2021/04/14 00:55:56;;;;;;;;;;;;;;;8.82;42.99;102387.56;5000090;28;96939;-79
2021/04/14 00:58:22;;;;;;;;;;;;;;;8.98;42.77;102383.16;5001475;28;97249;-79
2021/04/14 01:00:50;;;;;;;;;;;;;;;8.40;43.66;102392.00;4998984;28;97687;-78
2021/04/14 01:03:17;;;;;;;;;;;;;;;8.22;44.39;102396.38;4998460;28;101443;-78
2021/04/14 01:05:44;;;;;;;;;;;;;;;8.08;45.21;102387.59;4989401;28;98316;-78
2021/04/14 01:08:10;;;;;;;;;;;;;;;8.65;43.84;102386.75;4986687;28;97803;-78
2021/04/14 01:10:36;;;;;;;;;;;;;;;8.73;43.38;102395.47;4990398;28;100272;-78
2021/04/14 01:13:02;;;;;;;;;;;;;;;8.54;44.11;102383.22;4991048;28;97551;-77
2021/04/14 01:15:30;;;;;;;;;;;;;;;8.70;43.96;102391.13;4989465;28;96858;-77
2021/04/14 01:17:56;;;;;;;;;;;;;;;8.91;43.52;102387.56;4990886;28;96840;-78
2021/04/14 01:20:22;;;;;;;;;;;;;;;8.99;43.43;102390.19;4987152;28;99238;-77
2021/04/14 01:22:49;;;;;;;;;;;;;;;8.53;44.13;102386.75;4988382;28;100263;-77
2021/04/14 01:25:16;;;;;;;;;;;;;;;8.67;44.07;102387.59;4989958;28;97200;-78
2021/04/14 01:27:42;;;;;;;;;;;;;;;8.66;44.29;102388.50;4988828;28;99406;-78
2021/04/14 01:30:10;;;;;;;;;;;;;;;8.54;44.68;102391.13;4990305;28;98182;-78
2021/04/14 01:32:36;;;;;;;;;;;;;;;8.52;44.65;102383.25;4987019;28;100169;-79
2021/04/14 01:35:02;;;;;;;;;;;;;;;8.38;44.88;102380.63;4992937;28;97428;-78
2021/04/14 01:37:28;;;;;;;;;;;;;;;7.76;46.69;102379.66;4997996;28;98609;-78
2021/04/14 01:39:55;;;;;;;;;;;;;;;7.97;45.89;102375.31;4995150;28;99366;-77
2021/04/14 01:42:20;;;;;;;;;;;;;;;8.29;45.97;102385.84;4999118;28;98074;-79
2021/04/14 01:44:46;;;;;;;;;;;;;;;8.07;45.90;102376.19;4999356;28;96981;-77
2021/04/14 01:47:12;;;;;;;;;;;;;;;8.49;45.12;102374.44;5008154;28;97517;-77
2021/04/14 01:49:38;;;;;;;;;;;;;;;8.12;45.92;102379.72;5005284;28;98490;-79
2021/04/14 01:52:04;;;;;;;;;;;;;;;7.94;46.52;102379.69;4989807;28;97810;-78
2021/04/14 01:54:30;;;;;;;;;;;;;;;8.40;45.50;102376.19;4987146;28;96851;-78
2021/04/14 01:56:56;;;;;;;;;;;;;;;8.42;45.35;102384.13;4984293;28;97305;-78
2021/04/14 01:59:22;;;;;;;;;;;;;;;7.96;46.33;102380.56;4984880;28;98910;-78
2021/04/14 02:01:48;;;;;;;;;;;;;;;7.70;47.84;102383.16;4985956;28;99078;-77
2021/04/14 02:04:14;;;;;;;;;;;;;;;7.69;47.74;102383.13;4985585;28;98315;-79
2021/04/14 02:06:40;;;;;;;;;;;;;;;7.81;47.35;102370.03;4986334;28;97296;-78
2021/04/14 02:09:05;;;;;;;;;;;;;;;8.20;46.62;102380.59;4986914;28;98874;-79
2021/04/14 02:11:31;;;;;;;;;;;;;;;8.43;45.76;102377.09;4988158;28;99217;-79
2021/04/14 02:13:58;;;;;;;;;;;;;;;8.46;45.79;102380.63;4986284;28;97106;-78
2021/04/14 02:16:24;;;;;;;;;;;;;;;8.54;45.76;102370.03;4989900;28;96893;-78
2021/04/14 02:18:50;;;;;;;;;;;;;;;8.52;45.56;102379.72;4989885;28;99318;-79
2021/04/14 02:21:17;;;;;;;;;;;;;;;8.57;45.63;102372.69;4990854;28;97728;-79
2021/04/14 02:23:43;;;;;;;;;;;;;;;8.12;46.32;102373.56;4988299;28;98415;-79
2021/04/14 02:26:10;;;;;;;;;;;;;;;8.37;46.17;102367.44;4989629;28;97683;-78
2021/04/14 02:28:36;;;;;;;;;;;;;;;7.82;47.32;102372.63;4988577;28;98905;-79
2021/04/14 02:31:03;;;;;;;;;;;;;;;7.63;48.18;102370.84;4990428;28;98360;-78
2021/04/14 02:33:30;;;;;;;;;;;;;;;7.51;48.26;102370.81;4988058;28;98304;-78
2021/04/14 02:35:56;;;;;;;;;;;;;;;7.94;47.61;102369.16;4988272;28;97336;-78
2021/04/14 02:38:22;;;;;;;;;;;;;;;8.24;46.77;102379.72;4987014;28;98928;-79
2021/04/14 02:40:49;;;;;;;;;;;;;;;8.09;47.09;102379.69;4989006;28;99226;-79
2021/04/14 02:43:15;;;;;;;;;;;;;;;7.87;47.60;102375.31;4988016;28;97354;-80
2021/04/14 02:45:41;;;;;;;;;;;;;;;7.74;47.83;102365.63;4987620;28;98873;-79
2021/04/14 02:48:09;;;;;;;;;;;;;;;8.01;47.18;102370.91;4988107;28;98900;-78
2021/04/14 02:50:35;;;;;;;;;;;;;;;7.89;47.91;102370.91;4989037;28;99188;-79
2021/04/14 02:53:00;;;;;;;;;;;;;;;7.39;48.78;102368.16;4987677;28;97082;-79
2021/04/14 02:55:27;;;;;;;;;;;;;;;7.99;47.64;102372.69;4988742;28;96955;-79
2021/04/14 02:57:53;;;;;;;;;;;;;;;7.88;47.83;102363.88;4989111;28;98903;-78
2021/04/14 03:00:20;;;;;;;;;;;;;;;7.42;49.24;102370.78;4988786;28;98900;-79
2021/04/14 03:02:45;;;;;;;;;;;;;;;7.87;48.15;102364.78;4989680;28;96933;-79
2021/04/14 03:05:23;;;;;;;;;;;;;;;8.27;47.12;102374.41;4993095;28;96895;-78
2021/04/14 03:07:49;;;;;;;;;;;;;;;7.46;48.62;102373.44;4989594;28;98155;-79
2021/04/14 03:10:15;;;;;;;;;;;;;;;7.88;48.09;102379.66;4990958;28;99986;-79
2021/04/14 03:12:41;;;;;;;;;;;;;;;8.09;47.69;102374.44;4990964;28;96880;-79
2021/04/14 03:15:08;;;;;;;;;;;;;;;8.09;47.58;102365.66;4988404;28;99012;-79
2021/04/14 03:17:34;;;;;;;;;;;;;;;8.10;47.83;102370.91;4990795;28;98212;-78
2021/04/14 03:20:00;;;;;;;;;;;;;;;8.08;47.84;102371.78;4989719;28;97532;-78
2021/04/14 03:22:27;;;;;;;;;;;;;;;8.06;47.85;102373.56;4990872;28;96847;-79
2021/04/14 03:24:53;;;;;;;;;;;;;;;7.80;48.20;102365.63;4990210;28;97230;-81
2021/04/14 03:27:18;;;;;;;;;;;;;;;7.88;48.01;102367.38;4988173;28;99114;-79
2021/04/14 03:29:46;;;;;;;;;;;;;;;7.69;48.89;102375.25;4989046;28;98797;-78
2021/04/14 03:32:11;;;;;;;;;;;;;;;7.36;49.98;102368.13;4989408;28;97824;-79
2021/04/14 03:34:37;;;;;;;;;;;;;;;7.03;50.99;102372.38;4988410;28;97133;-79
2021/04/14 03:37:03;;;;;;;;;;;;;;;7.22;50.60;102375.97;4987946;28;99098;-79
2021/04/14 03:39:30;;;;;;;;;;;;;;;7.60;49.56;102374.38;4991598;28;102465;-79
2021/04/14 03:41:55;;;;;;;;;;;;;;;8.01;48.20;102381.44;4996705;28;97487;-80
2021/04/14 03:44:21;;;;;;;;;;;;;;;7.78;48.53;102370.91;5004824;28;97161;-79
2021/04/14 03:46:47;;;;;;;;;;;;;;;7.53;48.96;102372.59;4997134;28;99207;-80
2021/04/14 03:49:13;;;;;;;;;;;;;;;7.64;48.95;102375.25;4994122;28;99398;-79
2021/04/14 03:51:39;;;;;;;;;;;;;;;7.40;49.62;102365.53;4995577;28;97407;-80
2021/04/14 03:54:05;;;;;;;;;;;;;;;7.58;49.14;102369.97;4991158;28;97136;-80
2021/04/14 03:56:31;;;;;;;;;;;;;;;7.20;50.17;102362.84;4988522;28;97854;-80
2021/04/14 03:58:57;;;;;;;;;;;;;;;7.46;49.81;102364.69;4988376;28;99627;-80
2021/04/14 04:01:24;;;;;;;;;;;;;;;7.51;49.67;102369.06;4989158;28;98542;-80
2021/04/14 04:03:50;;;;;;;;;;;;;;;7.76;48.90;102366.50;4988218;28;98784;-79
2021/04/14 04:06:16;;;;;;;;;;;;;;;7.70;48.86;102366.47;4985995;28;98642;-79
2021/04/14 04:08:42;;;;;;;;;;;;;;;7.79;48.74;102363.88;4988113;28;98832;-79
2021/04/14 04:11:08;;;;;;;;;;;;;;;7.73;48.80;102369.13;4987082;28;97280;-79
2021/04/14 04:13:36;;;;;;;;;;;;;;;7.73;49.26;102370.00;4988913;28;97165;-79
2021/04/14 04:16:02;;;;;;;;;;;;;;;7.59;49.35;102369.09;4988066;28;99342;-78
2021/04/14 04:18:28;;;;;;;;;;;;;;;7.77;49.26;102374.41;4990055;28;100320;-79
2021/04/14 04:20:54;;;;;;;;;;;;;;;7.40;50.08;102375.19;4990326;28;98084;-81
2021/04/14 04:23:20;;;;;;;;;;;;;;;7.50;49.87;102371.69;4985968;28;98676;-80
2021/04/14 04:25:46;;;;;;;;;;;;;;;7.90;48.83;102373.53;4988652;28;99243;-80
2021/04/14 04:28:11;;;;;;;;;;;;;;;7.44;49.81;102377.81;4986911;28;98659;-79
2021/04/14 04:30:38;;;;;;;;;;;;;;;7.35;50.43;102382.19;4990278;28;97317;-80
2021/04/14 04:33:05;;;;;;;;;;;;;;;7.29;50.37;102383.00;4986766;28;97578;-79
2021/04/14 04:35:33;;;;;;;;;;;;;;;7.26;50.81;102383.00;4989926;28;101015;-79
2021/04/14 04:37:59;;;;;;;;;;;;;;;7.96;49.15;102391.09;4986443;28;98129;-79
2021/04/14 04:40:25;;;;;;;;;;;;;;;7.39;50.35;102387.44;4991592;28;96900;-79
2021/04/14 04:42:51;;;;;;;;;;;;;;;7.07;51.63;102407.47;4987387;28;97707;-80
2021/04/14 04:45:18;;;;;;;;;;;;;;;7.44;50.88;102403.25;4986689;28;98802;-80
2021/04/14 04:47:45;;;;;;;;;;;;;;;6.30;53.82;102397.31;4986595;28;98793;-79
2021/04/14 04:50:12;;;;;;;;;;;;;;;6.58;53.25;102398.38;4988181;28;97231;-79
2021/04/14 04:52:37;;;;;;;;;;;;;;;6.89;52.43;102404.75;4986489;28;97621;-79
2021/04/14 04:55:04;;;;;;;;;;;;;;;7.18;51.22;102411.03;4985879;28;99100;-79
2021/04/14 04:57:29;;;;;;;;;;;;;;;7.60;50.16;102410.31;4985819;28;98958;-79
2021/04/14 04:59:55;;;;;;;;;;;;;;;7.38;50.86;102411.09;4987992;28;96943;-79
2021/04/14 05:02:21;;;;;;;;;;;;;;;7.14;51.52;102414.53;4987286;28;97427;-79
2021/04/14 05:04:48;;;;;;;;;;;;;;;7.49;50.41;102412.91;4985653;28;100856;-79
2021/04/14 05:07:14;;;;;;;;;;;;;;;7.32;50.96;102419.84;4981016;28;101809;-80
2021/04/14 05:09:40;;;;;;;;;;;;;;;7.16;52.07;102423.25;4987120;28;98433;-80
2021/04/14 05:12:06;;;;;;;;;;;;;;;6.74;53.17;102422.16;4988173;28;98321;-79
2021/04/14 05:14:32;;;;;;;;;;;;;;;7.71;50.74;102418.22;4984469;28;98811;-80
2021/04/14 05:16:58;;;;;;;;;;;;;;;7.92;49.77;102423.56;4986062;28;98856;-80
2021/04/14 05:19:24;;;;;;;;;;;;;;;7.84;49.88;102426.16;4988548;28;98800;-79
2021/04/14 05:21:51;;;;;;;;;;;;;;;7.01;51.97;102433.72;4990568;28;96945;-78
2021/04/14 05:24:16;;;;;;;;;;;;;;;7.42;51.18;102426.00;4983682;28;99396;-80
2021/04/14 05:26:42;;;;;;;;;;;;;;;7.82;50.05;102434.91;4986646;28;101288;-80
2021/04/14 05:29:08;;;;;;;;;;;;;;;6.99;51.75;102438.06;4985234;28;97091;-80
2021/04/14 05:31:37;;;;;;;;;;;;;;;7.50;51.16;102443.59;4992015;28;98863;-80
2021/04/14 05:34:03;;;;;;;;;;;;;;;7.58;51.15;102439.25;4990892;28;99163;-80
2021/04/14 05:36:29;;;;;;;;;;;;;;;7.71;50.52;102437.53;4991244;28;98020;-78
2021/04/14 05:38:56;;;;;;;;;;;;;;;8.18;49.09;102434.13;4998198;28;96884;-78
2021/04/14 05:41:23;;;;;;;;;;;;;;;7.97;49.58;102438.47;5002309;28;98072;-79
2021/04/14 05:43:49;;;;;;;;;;;;;;;8.35;48.46;102441.19;4991300;28;101082;-79
2021/04/14 05:46:16;;;;;;;;;;;;;;;8.47;48.67;102434.19;4989820;28;99972;-79
2021/04/14 05:48:43;;;;;;;;;;;;;;;8.40;48.37;102444.69;4989764;28;96854;-79
2021/04/14 05:51:10;;;;;;;;;;;;;;;8.16;49.30;102447.28;4989449;28;97617;-78
2021/04/14 05:53:37;;;;;;;;;;;;;;;8.08;49.58;102443.75;4989805;28;99629;-78
2021/04/14 05:56:05;;;;;;;;;;;;;;;8.43;48.73;102442.94;4988074;28;98938;-78
2021/04/14 05:58:31;;;;;;;;;;;;;;;7.71;50.76;102444.53;4989182;28;98631;-81
2021/04/14 06:00:58;;;;;;;;;;;;;;;8.26;49.45;102446.44;4993000;28;97367;-79
2021/04/14 06:03:24;;;;;;;;;;;;;;;7.64;50.69;102450.66;4989219;28;100750;-80
2021/04/14 06:05:51;;;;;;;;;;;;;;;7.58;51.08;102451.53;4986727;28;98820;-79
2021/04/14 06:08:17;;;;;;;;;;;;;;;7.60;51.26;102441.88;4989493;28;98532;-77
2021/04/14 06:10:43;;;;;;;;;;;;;;;7.87;50.32;102449.00;4995236;28;97285;-79
2021/04/14 06:13:10;;;;;;;;;;;;;;;8.72;48.42;102457.88;4994350;28;100775;-80
2021/04/14 06:15:36;;;;;;;;;;;;;;;9.23;47.01;102452.50;4997319;28;100779;-81
2021/04/14 06:18:02;;;;;;;;;;;;;;;9.01;47.36;102449.91;4991668;28;98584;-80
2021/04/14 06:20:30;;;;;;;;;;;;;;;8.92;47.29;102447.31;4994186;28;98313;-82
2021/04/14 06:22:59;;;;;;;;;;;;;;;8.48;48.82;102451.72;4995344;28;100347;-82
2021/04/14 06:25:25;;;;;;;;;;;;;;;8.63;48.34;102454.38;4990227;28;101258;-79
2021/04/14 06:27:57;;;;;;;;;;;;;;;9.08;47.10;102450.78;4985610;28;98288;-79
2021/04/14 06:30:25;;;;;;;;;;;;;;;9.47;46.49;102449.78;4985825;28;97558;-78
2021/04/14 06:32:50;;;;;;;;;;;;;;;10.07;44.97;102445.06;4986167;28;100731;-78
2021/04/14 06:35:17;;;;;;;;;;;;;;;9.88;45.32;102453.09;4983604;28;99283;-79
2021/04/14 06:37:43;;;;;;;;;;;;;;;9.69;45.45;102455.84;4986213;28;99169;-79
2021/04/14 06:43:08;;;;;;;;;;;;;;;9.43;46.42;102458.59;4983598;28;99106;-80
2021/04/14 06:45:39;;;;;;;;;;;;;;;9.84;45.55;102455.78;4979757;28;97794;-78
2021/04/14 06:48:11;;;;;;;;;;;;;;;9.75;45.30;102456.69;4988948;28;96852;-78
2021/04/14 06:50:40;;;;;;;;;;;;;;;10.37;44.24;102455.47;4989486;28;98741;-79
2021/04/14 06:53:26;;;;;;;;;;;;;;;9.79;45.47;102453.16;4983583;28;102240;-78
2021/04/14 06:55:56;;;;;;;;;;;;;;;8.89;48.17;102454.34;4983607;28;102936;-78
2021/04/14 06:58:29;;;;;;;;;;;;;;;10.06;44.93;102451.22;4990293;28;97521;-78
2021/04/14 07:01:00;;;;;;;;;;;;;;;10.47;44.04;102454.50;4988588;28;96791;-79
2021/04/14 07:03:27;;;;;;;;;;;;;;;10.13;44.63;102452.94;4988664;28;97636;-79
2021/04/14 07:05:55;;;;;;;;;;;;;;;10.20;44.58;102450.28;4989669;28;100617;-78
2021/04/14 07:08:22;;;;;;;;;;;;;;;9.99;44.74;102445.13;4992016;28;98226;-79
2021/04/14 07:10:49;;;;;;;;;;;;;;;9.99;45.13;102443.34;4996064;28;98334;-80
2021/04/14 07:13:16;;;;;;;;;;;;;;;10.15;44.70;102453.81;5006811;28;99590;-79
2021/04/14 07:15:42;;;;;;;;;;;;;;;9.98;45.23;102454.78;4997351;28;97679;-79
2021/04/14 07:18:18;;;;;;;;;;;;;;;10.53;44.09;102453.56;4988915;28;97321;-78
2021/04/14 07:20:49;;;;;;;;;;;;;;;10.12;44.68;102446.78;4992360;28;97214;-78
2021/04/14 07:23:37;;;;;;;;;;;;;;;9.71;45.82;102454.97;4996055;28;100608;-79
2021/04/14 07:26:05;;;;;;;;;;;;;;;9.72;45.72;102450.53;4988424;28;98807;-78
2021/04/14 07:28:51;;;;;;;;;;;;;;;9.54;45.74;102455.03;4993317;28;96828;-78
2021/04/14 07:31:20;;;;;;;;;;;;;;;9.51;46.39;102457.69;4993368;28;96971;-78
2021/04/14 07:33:56;;;;;;;;;;;;;;;9.27;47.17;102452.50;5008704;28;100210;-79
2021/04/14 07:36:28;;;;;;;;;;;;;;;9.76;45.87;102457.59;4994449;28;97895;-79
2021/04/14 07:38:57;;;;;;;;;;;;;;;10.25;44.84;102455.53;4987808;28;97735;-79
2021/04/14 07:41:29;;;;;;;;;;;;;;;10.28;44.23;102453.78;4990022;28;97344;-80
2021/04/14 07:44:00;;;;;;;;;;;;;;;10.21;44.49;102453.81;4992493;28;97930;-79
2021/04/14 07:46:26;;;;;;;;;;;;;;;10.52;43.95;102447.41;4990345;28;98775;-80
2021/04/14 07:48:55;;;;;;;;;;;;;;;9.59;45.65;102455.00;4989172;28;98436;-79
2021/04/14 07:51:22;;;;;;;;;;;;;;;9.92;45.36;102453.94;4987499;28;98204;-79
2021/04/14 07:53:56;;;;;;;;;;;;;;;9.44;46.33;102449.81;4987499;28;98453;-79
2021/04/14 07:56:23;;;;;;;;;;;;;;;10.00;45.08;102454.78;4990857;28;98124;-79
2021/04/14 07:58:51;;;;;;;;;;;;;;;11.03;42.75;102453.09;4992921;28;98635;-78
2021/04/14 08:01:19;;;;;;;;;;;;;;;11.29;42.32;102450.19;4990749;28;97472;-80
2021/04/14 08:03:45;;;;;;;;;;;;;;;11.06;41.91;102453.94;4981319;28;99767;-78
2021/04/14 08:06:14;;;;;;;;;;;;;;;11.98;40.19;102448.41;4998077;28;97973;-78
2021/04/14 08:08:41;;;;;;;;;;;;;;;11.93;40.13;102448.50;4990485;28;97032;-78
2021/04/14 08:11:10;;;;;;;;;;;;;;;11.95;39.65;102461.69;4992964;28;97317;-80
2021/04/14 08:13:39;;;;;;;;;;;;;;;12.77;38.43;102447.16;4993704;28;98993;-80
2021/04/14 08:16:10;;;;;;;;;;;;;;;13.24;37.14;102450.72;4998642;28;97707;-79
2021/04/14 08:18:38;;;;;;;;;;;;;;;12.80;38.00;102449.72;5001820;28;98719;-79
2021/04/14 08:21:05;;;;;;;;;;;;;;;12.57;38.46;102443.97;4996948;28;97049;-77
2021/04/14 08:23:32;;;;;;;;;;;;;;;13.30;37.40;102440.00;4995146;28;98963;-77
2021/04/14 08:25:59;;;;;;;;;;;;;;;12.24;38.98;102438.31;5005687;28;98784;-78
2021/04/14 08:28:29;;;;;;;;;;;;;;;12.67;38.40;102437.59;5014439;28;96521;-78
2021/04/14 08:31:05;;;;;;;;;;;;;;;12.13;39.05;102434.97;5013797;28;96700;-79
2021/04/14 08:33:31;;;;;;;;;;;;;;;12.12;39.59;102442.91;4991271;28;99058;-80
2021/04/14 08:36:06;;;;;;;;;;;;;;;12.31;39.14;102433.78;4997491;28;98743;-79
2021/04/14 08:38:34;;;;;;;;;;;;;;;12.28;38.52;102439.13;4993368;28;96842;-79
2021/04/14 08:41:01;;;;;;;;;;;;;;;12.94;36.67;102430.91;4992786;28;99019;-78
2021/04/14 08:43:32;;;;;;;;;;;;;;;13.84;35.64;102427.31;4995781;28;99228;-78
2021/04/14 08:46:08;;;;;;;;;;;;;;;13.77;35.78;102437.22;5003765;28;98997;-79
2021/04/14 08:48:35;;;;;;;;;;;;;;;13.77;35.72;102426.59;5010074;28;97597;-78
2021/04/14 08:51:04;;;;;;;;;;;;;;;12.94;37.22;102431.78;5009660;28;97987;-78
2021/04/14 08:53:32;;;;;;;;;;;;;;;12.68;37.76;102419.00;4995790;28;99319;-78
2021/04/14 08:55:59;;;;;;;;;;;;;;;12.53;38.25;102423.72;4998304;28;99319;-78
2021/04/14 08:58:25;;;;;;;;;;;;;;;12.08;38.17;102430.63;4989525;28;97115;-77
2021/04/14 09:00:53;;;;;;;;;;;;;;;10.70;40.70;102426.09;4993462;28;97509;-79
2021/04/14 09:03:20;;;;;;;;;;;;;;;11.21;39.94;102429.09;5001723;28;101299;-79
2021/04/14 09:05:47;;;;;;;;;;;;;;;11.21;39.68;102418.50;5004696;28;101307;-79
2021/04/14 09:08:17;;;;;;;;;;;;;;;11.71;38.76;102409.03;5000271;28;96964;-79
2021/04/14 09:10:58;;;;;;;;;;;;;;;11.49;39.73;102414.63;5003530;28;97004;-79
2021/04/14 09:13:34;;;;;;;;;;;;;;;12.39;37.81;102415.97;5009726;28;98006;-77
2021/04/14 09:16:01;;;;;;;;;;;;;;;12.58;36.58;102408.59;4999162;28;97829;-78
2021/04/14 09:18:29;;;;;;;;;;;;;;;12.33;36.68;102409.00;4995438;28;97215;-78
2021/04/14 09:21:08;;;;;;;;;;;;;;;12.67;35.86;102405.75;4999032;28;97287;-78
2021/04/14 09:23:35;;;;;;;;;;;;;;;14.01;33.11;102395.91;4992642;28;99191;-78
2021/04/14 09:26:02;;;;;;;;;;;;;;;14.68;31.68;102399.59;4989925;28;100616;-77
2021/04/14 09:28:28;;;;;;;;;;;;;;;14.90;31.40;102397.22;5006946;28;96842;-77
2021/04/14 09:30:56;;;;;;;;;;;;;;;14.01;31.06;102393.25;4995107;28;97399;-78
2021/04/14 09:33:23;;;;;;;;;;;;;;;13.18;33.89;102396.00;4994679;28;99743;-78
2021/04/14 09:35:59;;;;;;;;;;;;;;;12.56;33.88;102397.13;4988201;28;98910;-79
2021/04/14 09:38:30;;;;;;;;;;;;;;;11.87;35.98;102397.38;4987889;28;97135;-79
2021/04/14 09:41:08;;;;;;;;;;;;;;;12.03;36.73;102406.81;4993638;28;96958;-79
2021/04/14 09:43:35;;;;;;;;;;;;;;;10.76;39.23;102415.44;4993344;28;102252;-78
2021/04/14 09:46:03;;;;;;;;;;;;;;;11.30;39.31;102407.81;4996432;28;99549;-77
2021/04/14 09:48:40;;;;;;;;;;;;;;;11.73;39.10;102400.19;4985774;28;97266;-78
2021/04/14 09:51:16;;;;;;;;;;;;;;;11.64;38.66;102396.78;4993852;28;97245;-80
2021/04/14 09:53:42;;;;;;;;;;;;;;;11.53;38.75;102405.75;4995163;28;99707;-78
2021/04/14 09:56:11;;;;;;;;;;;;;;;10.69;40.07;102407.63;4995634;28;98731;-78
2021/04/14 09:58:43;;;;;;;;;;;;;;;11.43;39.07;102403.22;4996232;28;97057;-79
2021/04/14 10:01:14;;;;;;;;;;;;;;;12.87;35.83;102392.13;4997183;28;97308;-81
2021/04/14 10:03:53;;;;;;;;;;;;;;;;;;;;;
2021/04/14 10:06:23;;;;;;;;;;;;;;;14.38;31.03;102381.75;4991720;28;127157;-79
2021/04/14 10:08:55;;;;;;;;;;;;;;;14.44;32.03;102387.78;4991508;28;97865;-79
2021/04/14 10:11:25;;;;;;;;;;;;;;;11.94;33.82;102386.66;4986525;28;97562;-78
2021/04/14 10:13:51;;;;;;;;;;;;;;;11.96;34.34;102391.91;4991054;28;99110;-78
2021/04/14 10:16:22;;;;;;;;;;;;;;;12.63;33.53;102394.34;4988634;28;98722;-79
2021/04/14 10:18:49;;;;;;;;;;;;;;;13.11;33.37;102392.56;4994766;28;96762;-79
2021/04/14 10:21:18;;;;;;;;;;;;;;;12.20;33.74;102398.63;4993877;28;97258;-79
2021/04/14 10:23:44;;;;;;;;;;;;;;;12.45;33.32;102393.78;4990625;28;99120;-80
2021/04/14 10:26:11;;;;;;;;;;;;;;;12.08;33.65;102394.38;4994082;28;101245;-78
2021/04/14 10:28:41;;;;;;;;;;;;;;;12.88;31.89;102386.78;4999593;28;98104;-79
2021/04/14 10:31:08;;;;;;;;;;;;;;;12.72;31.88;102382.69;4997695;28;97169;-80
2021/04/14 10:33:35;;;;;;;;;;;;;;;13.53;30.63;102384.59;4988919;28;98851;-79
2021/04/14 10:36:08;;;;;;;;;;;;;;;13.94;30.04;102383.69;4994766;28;98921;-80
2021/04/14 10:38:35;;;;;;;;;;;;;;;12.06;32.20;102369.69;4995591;28;96916;-80
2021/04/14 10:41:12;;;;;;;;;;;;;;;11.98;33.47;102374.25;4998183;28;96820;-79
2021/04/14 10:43:38;;;;;;;;;;;;;;;11.01;34.15;102378.19;5002396;28;99021;-79
2021/04/14 10:46:05;;;;;;;;;;;;;;;11.01;34.17;102384.34;4999232;28;98939;-80
2021/04/14 10:48:32;;;;;;;;;;;;;;;11.55;33.60;102374.81;5001210;28;97159;-79
2021/04/14 10:51:04;;;;;;;;;;;;;;;12.55;31.70;102368.84;4998245;28;97183;-79
2021/04/14 10:53:33;;;;;;;;;;;;;;;13.11;30.55;102373.97;4997045;28;98713;-79
2021/04/14 10:55:59;;;;;;;;;;;;;;;12.55;30.43;102368.84;4989997;28;99527;-78
2021/04/14 10:58:33;;;;;;;;;;;;;;;12.28;29.75;102373.72;4991137;28;98880;-79
2021/04/14 11:01:09;;;;;;;;;;;;;;;12.27;29.68;102371.13;5000356;28;96876;-81
2021/04/14 11:03:39;;;;;;;;;;;;;;;13.21;28.02;102368.50;4992843;28;98801;-80
2021/04/14 11:06:10;;;;;;;;;;;;;;;12.46;28.59;102369.03;4994341;28;99487;-80
2021/04/14 11:08:37;;;;;;;;;;;;;;;12.50;28.49;102360.13;4997615;28;96988;-80
2021/04/14 11:11:21;;;;;;;;;;;;;;;11.90;29.75;102363.75;5007417;28;96854;-81
2021/04/14 11:13:49;;;;;;;;;;;;;;;12.21;30.54;102363.25;4999150;28;98819;-81
2021/04/14 11:16:15;;;;;;;;;;;;;;;12.64;30.59;102363.41;4996990;28;101500;-82
2021/04/14 11:18:42;;;;;;;;;;;;;;;12.52;31.23;102358.31;5000871;28;97215;-80
2021/04/14 11:21:25;;;;;;;;;;;;;;;11.79;32.89;102363.06;4997415;28;97805;-80
2021/04/14 11:24:01;;;;;;;;;;;;;;;12.29;31.78;102356.94;4999487;28;102062;-80
2021/04/14 11:26:27;;;;;;;;;;;;;;;13.69;30.16;102351.50;5006018;28;99276;-78
2021/04/14 11:28:54;;;;;;;;;;;;;;;13.47;29.44;102352.88;5012869;28;97104;-80
2021/04/14 11:31:27;;;;;;;;;;;;;;;13.59;29.01;102341.97;5011753;28;96741;-78
2021/04/14 11:33:53;;;;;;;;;;;;;;;12.40;30.26;102337.34;4999514;28;100475;-78
2021/04/14 11:36:21;;;;;;;;;;;;;;;13.22;29.55;102341.91;4997910;28;99381;-79
2021/04/14 11:38:57;;;;;;;;;;;;;;;13.55;28.79;102337.66;5000027;28;97818;-80
2021/04/14 11:41:26;;;;;;;;;;;;;;;14.41;27.20;102342.66;5003281;28;98555;-79
2021/04/14 11:43:53;;;;;;;;;;;;;;;14.93;26.52;102333.25;4999432;28;97679;-80
2021/04/14 11:46:28;;;;;;;;;;;;;;;14.56;26.60;102338.72;4994221;28;98631;-79
2021/04/14 11:49:15;;;;;;;;;;;;;;;14.77;26.90;102338.13;4997882;28;97390;-78
2021/04/14 11:51:43;;;;;;;;;;;;;;;14.26;27.16;102335.91;4975490;28;97406;-80
2021/04/14 11:54:26;;;;;;;;;;;;;;;14.72;27.04;102340.03;4995061;28;100705;-78
2021/04/14 11:56:57;;;;;;;;;;;;;;;14.40;26.69;102340.91;5000300;28;97972;-79
2021/04/14 11:59:24;;;;;;;;;;;;;;;13.73;27.14;102342.53;4999854;28;97820;-78
2021/04/14 12:01:56;;;;;;;;;;;;;;;14.17;26.80;102340.59;5004526;28;98081;-77
2021/04/14 12:04:22;;;;;;;;;;;;;;;13.45;27.26;102341.44;4994114;28;101152;-78
2021/04/14 12:06:50;;;;;;;;;;;;;;;13.59;26.16;102341.13;4996516;28;99377;-80
2021/04/14 12:09:16;;;;;;;;;;;;;;;13.39;26.63;102344.22;4998850;28;97015;-79
2021/04/14 12:11:41;;;;;;;;;;;;;;;12.83;27.82;102342.69;4992751;28;97104;-79
2021/04/14 12:14:08;;;;;;;;;;;;;;;12.79;28.21;102341.91;4999042;28;99036;-79
2021/04/14 12:16:34;;;;;;;;;;;;;;;12.75;28.74;102340.19;4988983;28;99695;-79
2021/04/14 12:19:00;;;;;;;;;;;;;;;11.83;30.52;102345.31;4997907;28;98905;-79
2021/04/14 12:21:26;;;;;;;;;;;;;;;11.78;30.69;102347.19;4994007;28;97029;-77
2021/04/14 12:23:53;;;;;;;;;;;;;;;11.61;31.28;102346.53;4995112;28;98936;-79
2021/04/14 12:26:19;;;;;;;;;;;;;;;11.97;31.47;102353.94;4991933;28;99488;-79
2021/04/14 12:28:45;;;;;;;;;;;;;;;12.04;31.20;102354.72;4989482;28;98731;-80
2021/04/14 12:31:11;;;;;;;;;;;;;;;11.18;32.63;102362.97;4972611;28;99360;-78
2021/04/14 12:33:37;;;;;;;;;;;;;;;10.94;33.41;102357.97;4991609;28;100021;-79
2021/04/14 12:36:03;;;;;;;;;;;;;;;10.75;33.47;102362.59;4994272;28;101242;-78
2021/04/14 12:38:29;;;;;;;;;;;;;;;11.72;31.96;102358.72;4992479;28;97748;-79
2021/04/14 12:40:56;;;;;;;;;;;;;;;11.12;31.88;102357.75;4992938;28;96899;-80
2021/04/14 12:43:23;;;;;;;;;;;;;;;11.27;31.91;102356.69;4998888;28;101476;-79
2021/04/14 12:45:50;;;;;;;;;;;;;;;11.71;31.32;102351.66;4992567;28;100323;-79
2021/04/14 12:48:17;;;;;;;;;;;;;;;12.43;30.85;102347.88;4997924;28;97649;-78
2021/04/14 12:50:43;;;;;;;;;;;;;;;12.80;30.38;102338.31;4992949;28;98902;-80